Time;durP1;ratioP1;P1;durP2;ratioP2;P2;SDS_P1;SDS_P2;PMS_P1;PMS_P2;Temp;Humidity;BMP_temperature;BMP_pressure;BME280_temperature;BME280_humidity;BME280_pressure;Samples;Min_cycle;Max_cycle;Signal;HPM_P1;HPM_P2
2022/12/12 00:00:00;;;;;;;7.33;4.77;;;-1.60;99.90;;;;;;5063765;28;20687;-73
2022/12/12 00:02:26;;;;;;;9.13;6.60;;;-1.50;99.90;;;;;;5070492;28;20179;-73
2022/12/12 00:04:55;;;;;;;12.20;7.80;;;-1.50;99.90;;;;;;5065123;28;20185;-73
2022/12/12 00:07:21;;;;;;;7.87;6.73;;;-1.50;99.90;;;;;;5071401;28;20653;-73
2022/12/12 00:09:46;;;;;;;8.47;5.83;;;-1.60;99.90;;;;;;5074193;28;20224;-73
2022/12/12 00:12:12;;;;;;;7.50;6.53;;;-1.60;99.90;;;;;;5071251;28;20179;-73
2022/12/12 00:14:38;;;;;;;10.83;5.97;;;-1.50;99.90;;;;;;5072626;28;20185;-73
2022/12/12 00:17:04;;;;;;;7.20;6.17;;;-1.50;99.90;;;;;;5065854;28;20523;-73
2022/12/12 00:19:29;;;;;;;10.03;7.27;;;-1.40;99.90;;;;;;5078192;28;20199;-74
2022/12/12 00:21:55;;;;;;;9.33;7.47;;;-1.40;99.90;;;;;;5070310;28;20262;-73
2022/12/12 00:24:21;;;;;;;6.47;5.43;;;-1.40;99.90;;;;;;5072849;28;20743;-74
2022/12/12 00:26:46;;;;;;;11.03;7.73;;;-1.50;99.90;;;;;;5072878;28;20172;-73
2022/12/12 00:29:12;;;;;;;8.57;7.30;;;-1.50;99.90;;;;;;5064784;28;20336;-73
2022/12/12 00:31:37;;;;;;;9.13;7.33;;;-1.50;99.90;;;;;;5073974;28;20167;-73
2022/12/12 00:34:03;;;;;;;6.50;5.17;;;-1.60;99.90;;;;;;5069017;28;20218;-74
2022/12/12 00:36:30;;;;;;;11.00;8.63;;;-1.50;99.90;;;;;;5066941;28;20540;-74
2022/12/12 00:38:56;;;;;;;10.23;7.30;;;-1.30;99.90;;;;;;5074228;28;20255;-74
2022/12/12 00:41:22;;;;;;;10.97;7.80;;;-1.40;99.90;;;;;;5075080;28;20959;-75
2022/12/12 00:43:48;;;;;;;12.00;8.07;;;-1.40;99.90;;;;;;5079296;28;20672;-74
2022/12/12 00:46:16;;;;;;;11.47;7.87;;;-1.50;99.90;;;;;;5077224;28;20182;-75
2022/12/12 00:48:42;;;;;;;10.73;7.63;;;-1.50;99.90;;;;;;5073761;28;20685;-74
2022/12/12 00:51:09;;;;;;;9.87;8.13;;;-1.60;99.90;;;;;;5075269;28;20171;-74
2022/12/12 00:53:36;;;;;;;9.83;7.03;;;-1.70;99.90;;;;;;5065088;28;20658;-74
2022/12/12 00:56:02;;;;;;;11.13;7.73;;;-1.60;99.90;;;;;;5080958;28;20179;-74
2022/12/12 00:58:29;;;;;;;10.43;7.63;;;-1.50;99.90;;;;;;5065838;28;20225;-74
2022/12/12 01:00:55;;;;;;;12.10;9.33;;;-1.50;99.90;;;;;;5080987;28;20197;-74
2022/12/12 01:03:21;;;;;;;11.10;8.10;;;-1.50;99.90;;;;;;5069537;28;20190;-74
2022/12/12 01:05:47;;;;;;;13.23;9.37;;;-1.50;99.90;;;;;;5071908;28;20199;-74
2022/12/12 01:08:12;;;;;;;11.77;8.70;;;-1.50;99.90;;;;;;5072319;28;20207;-74
2022/12/12 01:10:38;;;;;;;7.20;6.47;;;-1.50;99.90;;;;;;5075114;28;20175;-74
2022/12/12 01:13:04;;;;;;;8.80;6.97;;;-1.40;99.90;;;;;;5075796;28;20167;-74
2022/12/12 01:15:30;;;;;;;10.20;7.53;;;-1.40;99.90;;;;;;5069861;28;20180;-73
2022/12/12 01:17:56;;;;;;;8.47;6.33;;;-1.40;99.90;;;;;;5061279;28;20204;-74
2022/12/12 01:20:25;;;;;;;9.13;7.17;;;-1.40;99.90;;;;;;5068196;28;20179;-74
2022/12/12 01:22:51;;;;;;;13.83;9.37;;;-1.40;99.90;;;;;;5069607;28;20187;-74
2022/12/12 01:25:18;;;;;;;13.93;9.67;;;-1.50;99.90;;;;;;5073171;28;20691;-74
2022/12/12 01:27:44;;;;;;;11.73;8.93;;;-1.60;99.90;;;;;;5069116;28;20200;-74
2022/12/12 01:30:15;;;;;;;13.03;9.37;;;-1.60;99.90;;;;;;5073907;28;20178;-74
2022/12/12 01:32:41;;;;;;;12.57;9.67;;;-1.50;99.90;;;;;;5068459;28;20199;-74
2022/12/12 01:35:07;;;;;;;11.77;10.17;;;-1.60;99.90;;;;;;5074671;28;20657;-74
2022/12/12 01:37:38;;;;;;;11.33;9.03;;;-1.60;99.90;;;;;;5069656;28;20198;-74
2022/12/12 01:40:06;;;;;;;12.10;9.80;;;-1.60;99.90;;;;;;5070811;28;20218;-74
2022/12/12 01:42:33;;;;;;;8.87;7.97;;;-1.70;99.90;;;;;;5077391;28;20190;-73
2022/12/12 01:44:59;;;;;;;10.97;9.00;;;-1.70;99.90;;;;;;5074433;28;20184;-74
2022/12/12 01:47:25;;;;;;;11.23;9.10;;;-1.80;99.90;;;;;;5073770;28;20195;-74
2022/12/12 01:50:06;;;;;;;12.93;9.67;;;-1.70;99.90;;;;;;5071871;28;20205;-73
2022/12/12 01:52:39;;;;;;;10.17;8.17;;;-1.80;99.90;;;;;;5073612;28;20547;-74
2022/12/12 01:55:08;;;;;;;9.63;7.13;;;-1.60;99.90;;;;;;5069940;28;20510;-74
2022/12/12 01:57:39;;;;;;;15.33;9.50;;;-1.70;99.90;;;;;;5069185;28;20231;-74
2022/12/12 02:00:08;;;;;;;12.17;9.43;;;-1.70;99.90;;;;;;5071877;28;20174;-74
2022/12/12 02:02:35;;;;;;;11.80;9.10;;;-1.80;99.90;;;;;;5071447;28;20171;-74
2022/12/12 02:05:06;;;;;;;11.60;9.20;;;-1.80;99.90;;;;;;5066122;28;20203;-74
2022/12/12 02:07:32;;;;;;;12.97;9.97;;;-1.80;99.90;;;;;;5077353;28;20752;-74
2022/12/12 02:09:57;;;;;;;10.30;8.50;;;-1.80;99.90;;;;;;5073380;28;20183;-74
2022/12/12 02:12:23;;;;;;;12.97;9.87;;;-1.80;99.90;;;;;;5076690;28;20175;-74
2022/12/12 02:14:51;;;;;;;13.63;9.90;;;-1.80;99.90;;;;;;5083820;28;20205;-74
2022/12/12 02:17:35;;;;;;;10.97;8.30;;;-1.90;99.90;;;;;;5080949;28;20227;-74
2022/12/12 02:20:16;;;;;;;14.40;10.03;;;-1.80;99.90;;;;;;5066742;28;20203;-74
2022/12/12 02:23:02;;;;;;;11.70;8.80;;;-1.80;99.90;;;;;;5073790;28;20657;-74
2022/12/12 02:26:05;;;;;;;10.67;8.67;;;-1.80;99.90;;;;;;5069008;28;20159;-74
2022/12/12 02:28:42;;;;;;;13.70;9.23;;;-1.70;99.90;;;;;;5073340;28;20688;-74
2022/12/12 02:31:21;;;;;;;16.20;9.40;;;-1.70;99.90;;;;;;5067800;28;20182;-74
2022/12/12 02:33:47;;;;;;;13.63;9.97;;;-1.70;99.90;;;;;;5062916;28;20650;-74
2022/12/12 02:36:40;;;;;;;13.10;10.67;;;-1.70;99.90;;;;;;5075895;28;20180;-74
2022/12/12 02:39:36;;;;;;;12.07;8.67;;;-1.80;99.90;;;;;;5078767;28;20678;-74
2022/12/12 02:42:07;;;;;;;13.73;8.13;;;-1.80;99.90;;;;;;5068224;28;20665;-73
2022/12/12 02:44:34;;;;;;;12.60;9.50;;;-1.50;99.90;;;;;;5077354;28;20198;-74
2022/12/12 02:47:11;;;;;;;14.93;9.57;;;-1.50;99.90;;;;;;5073131;28;20175;-74
2022/12/12 02:49:52;;;;;;;12.60;9.70;;;-1.60;99.90;;;;;;5070464;28;20779;-74
2022/12/12 02:52:18;;;;;;;13.83;9.90;;;-1.50;99.90;;;;;;5071365;28;20210;-74
2022/12/12 02:54:44;;;;;;;13.00;9.77;;;-1.60;99.90;;;;;;5061231;28;20188;-74
2022/12/12 02:57:16;;;;;;;15.03;8.70;;;-1.80;99.90;;;;;;5068091;28;20188;-74
2022/12/12 02:59:46;;;;;;;13.17;9.40;;;-1.80;99.90;;;;;;5077373;28;20655;-74
2022/12/12 03:02:36;;;;;;;13.67;9.33;;;-1.70;99.90;;;;;;5069351;28;20189;-74
2022/12/12 03:08:46;;;;;;;15.10;11.37;;;-1.70;99.90;;;;;;5071860;28;20206;-74
2022/12/12 03:11:20;;;;;;;12.47;10.00;;;-1.80;99.90;;;;;;5028671;28;20188;-73
2022/12/12 03:13:57;;;;;;;12.70;9.57;;;-1.80;99.90;;;;;;5067417;28;20195;-74
2022/12/12 03:16:31;;;;;;;14.10;10.07;;;-1.80;99.90;;;;;;5081693;28;20179;-74
2022/12/12 03:19:12;;;;;;;13.27;10.20;;;-1.80;99.90;;;;;;5067630;28;20206;-74
2022/12/12 03:22:02;;;;;;;14.03;10.00;;;-1.90;99.90;;;;;;5066279;28;20258;-74
2022/12/12 03:24:46;;;;;;;14.57;10.27;;;-1.90;99.90;;;;;;5066228;28;20175;-74
2022/12/12 03:27:21;;;;;;;13.37;10.83;;;-1.90;99.90;;;;;;5075344;28;20672;-73
2022/12/12 03:30:02;;;;;;;17.77;11.00;;;-1.80;99.90;;;;;;5067003;28;20661;-73
2022/12/12 03:32:38;;;;;;;13.67;10.87;;;-1.80;99.90;;;;;;5063867;28;20188;-74
2022/12/12 03:35:18;;;;;;;11.53;9.50;;;-1.90;99.90;;;;;;5080563;28;20174;-74
2022/12/12 03:37:53;;;;;;;13.50;10.17;;;-1.90;99.90;;;;;;5079114;28;20195;-74
2022/12/12 03:40:44;;;;;;;16.40;11.13;;;-1.90;99.90;;;;;;5076674;28;20167;-74
2022/12/12 03:43:20;;;;;;;15.97;10.93;;;-1.90;99.90;;;;;;5064587;28;20317;-74
2022/12/12 03:46:13;;;;;;;15.50;11.43;;;-1.90;99.90;;;;;;5072573;28;20171;-74
2022/12/12 03:48:49;;;;;;;14.47;10.77;;;-1.80;99.90;;;;;;5075996;28;20213;-73
2022/12/12 03:51:20;;;;;;;14.03;10.90;;;-1.80;99.90;;;;;;5083149;28;20204;-73
2022/12/12 03:53:48;;;;;;;14.30;10.60;;;-1.80;99.90;;;;;;5072636;28;20211;-73
2022/12/12 03:56:23;;;;;;;14.90;10.87;;;-1.80;99.90;;;;;;5070024;28;20265;-73
2022/12/12 03:58:55;;;;;;;15.70;11.10;;;-1.90;99.90;;;;;;5074233;28;20194;-74
2022/12/12 04:01:24;;;;;;;13.77;10.17;;;-1.90;99.90;;;;;;5077766;28;20420;-74
2022/12/12 04:04:04;;;;;;;12.93;10.27;;;-1.90;99.90;;;;;;5080347;28;20223;-74
2022/12/12 04:06:44;;;;;;;16.07;10.33;;;-1.90;99.90;;;;;;5078948;28;20258;-74
2022/12/12 04:15:18;;;;;;;11.40;8.23;;;-2.00;99.90;;;;;;5073084;28;20178;-73
2022/12/12 04:17:59;;;;;;;11.70;9.37;;;-2.00;99.90;;;;;;5070885;28;20188;-74
2022/12/12 04:23:46;;;;;;;13.53;9.57;;;-2.10;99.90;;;;;;5080706;28;20282;-74
2022/12/12 04:26:39;;;;;;;13.40;9.20;;;-2.20;99.90;;;;;;5071066;28;20278;-74
2022/12/12 04:29:17;;;;;;;11.33;9.30;;;-2.20;99.90;;;;;;5080247;28;20206;-74
2022/12/12 04:31:52;;;;;;;14.40;9.60;;;-2.20;99.90;;;;;;5078802;28;20756;-74
2022/12/12 04:34:46;;;;;;;12.97;10.07;;;-2.30;99.90;;;;;;5073557;28;20587;-74
2022/12/12 04:37:15;;;;;;;13.53;9.47;;;-2.30;99.90;;;;;;5081107;28;21256;-74
2022/12/12 04:39:42;;;;;;;11.77;8.87;;;-2.30;99.90;;;;;;5075755;28;20669;-74
2022/12/12 04:42:13;;;;;;;11.47;8.83;;;-2.30;99.90;;;;;;5087722;28;20210;-74
2022/12/12 04:44:40;;;;;;;12.93;9.60;;;-2.20;99.90;;;;;;5072624;28;20558;-74
2022/12/12 04:47:07;;;;;;;12.30;9.00;;;-2.20;99.90;;;;;;5082612;28;20695;-74
2022/12/12 04:49:34;;;;;;;12.20;9.20;;;-2.10;99.90;;;;;;5080256;28;20688;-74
2022/12/12 04:52:05;;;;;;;13.07;9.73;;;-2.10;99.90;;;;;;5079337;28;20552;-74
2022/12/12 04:54:56;;;;;;;12.33;9.23;;;-2.00;99.90;;;;;;5071233;28;20183;-74
2022/12/12 04:57:31;;;;;;;12.90;9.70;;;-2.00;99.90;;;;;;5080715;28;20181;-74
2022/12/12 04:59:57;;;;;;;13.47;10.03;;;-1.90;99.90;;;;;;5078601;28;20180;-74
2022/12/12 05:02:35;;;;;;;13.70;9.80;;;-1.90;99.90;;;;;;5076335;28;20182;-74
2022/12/12 05:05:13;;;;;;;12.53;10.53;;;-1.90;99.90;;;;;;5069402;28;20179;-74
2022/12/12 05:07:48;;;;;;;12.97;9.77;;;-2.00;99.90;;;;;;5073555;28;20285;-74
2022/12/12 05:10:15;;;;;;;12.53;10.00;;;-2.10;99.90;;;;;;5080748;28;20184;-74
2022/12/12 05:12:55;;;;;;;13.80;9.90;;;-2.10;99.90;;;;;;5078835;28;20208;-74
2022/12/12 05:15:21;;;;;;;16.13;10.87;;;-2.10;99.90;;;;;;5074283;28;20264;-74
2022/12/12 05:17:55;;;;;;;13.20;10.63;;;-2.20;99.90;;;;;;5078997;28;20281;-74
2022/12/12 05:20:20;;;;;;;13.33;10.17;;;-2.20;99.90;;;;;;5086884;28;20779;-74
2022/12/12 05:22:46;;;;;;;12.90;10.20;;;-2.20;99.90;;;;;;5086771;28;20178;-74
2022/12/12 05:25:12;;;;;;;12.63;9.67;;;-2.20;99.90;;;;;;5081876;28;20178;-74
2022/12/12 05:27:38;;;;;;;15.83;11.30;;;-2.10;99.90;;;;;;5068831;28;20196;-74
2022/12/12 05:30:04;;;;;;;11.07;8.90;;;-2.10;99.90;;;;;;5067491;28;20209;-74
2022/12/12 05:32:29;;;;;;;13.90;10.20;;;-2.00;99.90;;;;;;5071725;28;20167;-74
2022/12/12 05:34:55;;;;;;;12.70;10.23;;;-2.00;99.90;;;;;;5063931;28;20240;-74
2022/12/12 05:37:20;;;;;;;15.10;10.13;;;-2.00;99.90;;;;;;5064800;28;20174;-74
2022/12/12 05:39:46;;;;;;;13.10;9.77;;;-2.00;99.90;;;;;;5077665;28;20202;-75
2022/12/12 05:42:11;;;;;;;15.53;9.87;;;-2.10;99.90;;;;;;5068339;28;20190;-74
2022/12/12 05:44:37;;;;;;;14.67;10.40;;;-2.30;99.90;;;;;;5068284;28;20187;-74
2022/12/12 05:47:03;;;;;;;11.07;9.40;;;-2.40;99.90;;;;;;5066482;28;20172;-74
2022/12/12 05:49:28;;;;;;;12.77;9.30;;;-2.50;99.90;;;;;;5075581;28;20281;-74
2022/12/12 05:51:54;;;;;;;12.63;9.80;;;-2.50;99.90;;;;;;5068362;28;20258;-73
2022/12/12 05:54:19;;;;;;;11.60;8.83;;;-2.60;99.90;;;;;;5073660;28;20197;-74
2022/12/12 05:56:45;;;;;;;11.80;9.27;;;-2.70;99.90;;;;;;5065613;28;20590;-73
2022/12/12 05:59:10;;;;;;;14.50;10.70;;;-2.50;99.90;;;;;;5071147;28;20230;-74
2022/12/12 06:01:36;;;;;;;11.83;9.23;;;-2.50;99.90;;;;;;5064464;28;20183;-74
2022/12/12 06:04:01;;;;;;;13.70;10.87;;;-2.50;99.90;;;;;;5075421;28;20185;-74
2022/12/12 06:06:27;;;;;;;12.73;9.60;;;-2.60;99.90;;;;;;5077224;28;20394;-74
2022/12/12 06:08:53;;;;;;;12.53;9.23;;;-2.60;99.90;;;;;;5067995;28;20207;-74
2022/12/12 06:11:18;;;;;;;12.47;9.00;;;-2.60;99.90;;;;;;5072579;28;20166;-75
2022/12/12 06:13:44;;;;;;;13.13;10.07;;;-2.70;99.90;;;;;;5073253;28;20175;-75
2022/12/12 06:16:17;;;;;;;13.73;9.47;;;-2.80;99.90;;;;;;5070578;28;20179;-75
2022/12/12 06:18:44;;;;;;;11.90;8.67;;;-2.90;99.90;;;;;;5068954;28;20231;-75
2022/12/12 06:21:11;;;;;;;12.70;9.33;;;-2.90;99.90;;;;;;5072087;28;20179;-74
2022/12/12 06:23:39;;;;;;;12.57;9.13;;;-3.00;99.90;;;;;;5070261;28;20273;-74
2022/12/12 06:26:07;;;;;;;12.00;8.70;;;-3.00;99.90;;;;;;5072375;28;20183;-74
2022/12/12 06:28:33;;;;;;;13.57;9.03;;;-2.90;99.90;;;;;;5065689;28;20306;-74
2022/12/12 06:30:59;;;;;;;11.03;8.57;;;-3.00;99.90;;;;;;5063191;28;20171;-77
2022/12/12 06:33:26;;;;;;;11.10;8.70;;;-3.00;99.90;;;;;;5067975;28;21007;-77
2022/12/12 06:36:05;;;;;;;14.53;9.67;;;-3.10;99.90;;;;;;5067391;28;20270;-76
2022/12/12 06:38:32;;;;;;;14.20;10.17;;;-3.10;99.90;;;;;;5075606;28;20211;-76
2022/12/12 06:40:58;;;;;;;11.73;9.33;;;-3.20;99.90;;;;;;5076566;28;20179;-75
2022/12/12 06:43:24;;;;;;;13.93;10.90;;;-3.30;99.90;;;;;;5066732;28;20186;-75
2022/12/12 06:45:50;;;;;;;13.87;9.93;;;-3.40;99.90;;;;;;5065163;28;20207;-75
2022/12/12 06:48:16;;;;;;;11.40;8.60;;;-3.40;99.90;;;;;;5068491;28;20692;-76
2022/12/12 06:50:43;;;;;;;11.07;9.00;;;-3.50;99.90;;;;;;5071754;28;20645;-76
2022/12/12 06:53:09;;;;;;;16.63;11.97;;;-3.50;99.90;;;;;;5074934;28;20244;-76
2022/12/12 06:55:40;;;;;;;13.23;10.13;;;-3.40;99.90;;;;;;5072287;28;20179;-75
2022/12/12 06:58:06;;;;;;;11.70;9.23;;;-3.40;99.90;;;;;;5073718;28;20297;-75
2022/12/12 07:00:31;;;;;;;11.67;9.27;;;-3.50;99.90;;;;;;5066092;28;20262;-75
2022/12/12 07:02:57;;;;;;;13.57;9.13;;;-3.50;99.90;;;;;;5064665;28;20275;-75
2022/12/12 07:05:23;;;;;;;14.60;9.87;;;-3.60;99.90;;;;;;5071576;28;20878;-74
2022/12/12 07:07:48;;;;;;;15.47;10.60;;;-3.60;99.90;;;;;;5070264;28;20202;-77
2022/12/12 07:10:14;;;;;;;15.67;10.83;;;-3.60;99.90;;;;;;5069976;28;20597;-77
2022/12/12 07:12:39;;;;;;;12.87;9.70;;;-3.50;99.90;;;;;;5065478;28;20585;-77
2022/12/12 07:15:06;;;;;;;14.03;10.43;;;-3.50;99.90;;;;;;5071328;28;20186;-80
2022/12/12 07:17:31;;;;;;;14.50;10.37;;;-3.50;99.90;;;;;;5080787;28;20201;-77
2022/12/12 07:19:57;;;;;;;14.80;10.13;;;-3.50;99.90;;;;;;5070056;28;20194;-79
2022/12/12 07:22:22;;;;;;;15.17;10.20;;;-3.60;99.90;;;;;;5061002;28;23339;-79
2022/12/12 07:24:50;;;;;;;16.67;10.57;;;-3.60;99.90;;;;;;5064948;28;20194;-79
2022/12/12 07:27:15;;;;;;;17.47;10.50;;;-3.60;99.90;;;;;;5078052;28;20176;-78
2022/12/12 07:29:41;;;;;;;14.97;10.23;;;-3.50;99.90;;;;;;5072150;28;20259;-78
2022/12/12 07:32:06;;;;;;;17.43;11.10;;;-3.50;99.90;;;;;;5076607;28;20657;-78
2022/12/12 07:34:32;;;;;;;18.67;11.60;;;-3.60;99.90;;;;;;5074546;28;20178;-77
2022/12/12 07:36:58;;;;;;;16.30;11.40;;;-3.60;99.90;;;;;;5072015;28;20397;-78
2022/12/12 07:39:23;;;;;;;14.80;10.80;;;-3.50;99.90;;;;;;5074023;28;20686;-78
2022/12/12 07:41:49;;;;;;;15.63;10.70;;;-3.40;99.90;;;;;;5074225;28;20559;-77
2022/12/12 07:44:15;;;;;;;14.43;10.87;;;-3.50;99.90;;;;;;5078493;28;20189;-78
2022/12/12 07:46:41;;;;;;;18.07;12.53;;;-3.30;99.90;;;;;;5075402;28;20244;-78
2022/12/12 07:49:07;;;;;;;17.93;12.30;;;-3.30;99.90;;;;;;5069897;28;20230;-78
2022/12/12 07:51:34;;;;;;;16.90;12.10;;;-3.30;99.90;;;;;;5070680;28;20574;-79
2022/12/12 07:53:59;;;;;;;19.30;12.63;;;-3.30;99.90;;;;;;5071524;28;20241;-76
2022/12/12 07:56:25;;;;;;;16.60;12.23;;;-3.30;99.90;;;;;;5059736;28;20225;-76
2022/12/12 07:58:52;;;;;;;20.93;11.93;;;-3.20;99.90;;;;;;5071169;28;20620;-75
2022/12/12 08:01:23;;;;;;;17.93;11.23;;;-3.20;99.90;;;;;;5071748;28;20248;-76
2022/12/12 08:03:50;;;;;;;16.37;11.77;;;-3.10;99.90;;;;;;5076997;28;20682;-78
2022/12/12 08:06:17;;;;;;;18.70;13.03;;;-2.90;99.90;;;;;;5075308;28;20190;-79
2022/12/12 08:08:43;;;;;;;15.20;11.33;;;-2.90;99.90;;;;;;5077073;28;20673;-76
2022/12/12 08:11:12;;;;;;;18.90;11.63;;;-2.90;99.90;;;;;;5064070;28;20235;-77
2022/12/12 08:13:38;;;;;;;17.07;10.87;;;-2.90;99.90;;;;;;5070399;28;20187;-76
2022/12/12 08:16:07;;;;;;;15.67;10.23;;;-2.80;99.90;;;;;;5074822;28;20182;-75
2022/12/12 08:18:33;;;;;;;16.97;11.43;;;-2.60;99.90;;;;;;5071889;28;20226;-76
2022/12/12 08:20:58;;;;;;;16.50;10.10;;;-2.50;99.90;;;;;;5073371;28;20651;-75
2022/12/12 08:23:24;;;;;;;16.10;10.70;;;-2.20;99.90;;;;;;5074098;28;20549;-75
2022/12/12 08:25:50;;;;;;;15.77;10.97;;;-2.10;99.90;;;;;;5065017;28;20670;-75
2022/12/12 08:28:16;;;;;;;19.53;11.17;;;-1.80;99.90;;;;;;5061998;28;20219;-75
2022/12/12 08:30:41;;;;;;;14.67;11.03;;;-1.60;99.90;;;;;;5065123;28;20553;-75
2022/12/12 08:33:07;;;;;;;15.07;10.63;;;-1.50;99.90;;;;;;5059394;28;20186;-77
2022/12/12 08:35:32;;;;;;;14.73;10.30;;;-1.40;99.90;;;;;;5073564;28;20203;-76
2022/12/12 08:37:58;;;;;;;12.83;9.87;;;-1.40;99.90;;;;;;5068402;28;20198;-76
2022/12/12 08:40:24;;;;;;;11.80;9.67;;;-1.30;99.90;;;;;;5069971;28;20179;-77
2022/12/12 08:42:50;;;;;;;14.30;10.57;;;-1.30;99.90;;;;;;5077884;28;20688;-77
2022/12/12 08:45:16;;;;;;;15.67;11.27;;;-1.10;99.90;;;;;;5072128;28;20179;-76
2022/12/12 08:47:42;;;;;;;15.60;10.83;;;-0.90;99.90;;;;;;5064637;28;20207;-77
2022/12/12 08:50:08;;;;;;;14.30;10.73;;;-0.80;99.90;;;;;;5068066;28;20215;-76
2022/12/12 08:52:33;;;;;;;12.97;7.90;;;-0.80;99.90;;;;;;5072260;28;20258;-76
2022/12/12 08:54:59;;;;;;;10.93;9.07;;;-0.70;99.90;;;;;;5077933;28;20206;-76
2022/12/12 08:57:25;;;;;;;8.43;6.70;;;-0.70;99.90;;;;;;5081109;28;20206;-76
2022/12/12 08:59:50;;;;;;;13.87;9.40;;;-0.90;99.90;;;;;;5066183;28;20621;-75
2022/12/12 09:02:16;;;;;;;13.00;8.73;;;-1.00;99.90;;;;;;5074799;28;20194;-75
2022/12/12 09:04:41;;;;;;;12.90;9.43;;;-0.90;99.90;;;;;;5067894;28;20266;-77
2022/12/12 09:07:07;;;;;;;19.33;11.07;;;-0.80;99.90;;;;;;5066672;28;20187;-76
2022/12/12 09:09:33;;;;;;;14.47;9.37;;;-0.20;99.90;;;;;;5078240;28;20202;-77
2022/12/12 09:11:58;;;;;;;12.90;8.77;;;0.20;99.90;;;;;;5071820;28;20180;-76
2022/12/12 09:14:24;;;;;;;13.47;9.53;;;0.50;99.90;;;;;;5067236;28;20183;-76
2022/12/12 09:16:50;;;;;;;10.77;8.97;;;0.60;99.90;;;;;;5066189;28;20205;-77
2022/12/12 09:19:15;;;;;;;12.73;10.07;;;0.50;99.90;;;;;;5075209;28;20204;-76
2022/12/12 09:21:41;;;;;;;12.47;9.47;;;0.40;99.90;;;;;;5073683;28;20179;-76
2022/12/12 09:24:09;;;;;;;12.10;9.23;;;0.60;99.90;;;;;;5076642;28;20752;-74
2022/12/12 09:26:35;;;;;;;12.47;8.63;;;1.90;99.90;;;;;;5078427;28;20304;-74
2022/12/12 09:29:00;;;;;;;9.87;8.27;;;3.60;99.90;;;;;;5076331;28;20300;-77
2022/12/12 09:31:26;;;;;;;11.70;8.50;;;5.30;99.90;;;;;;5074081;28;20194;-75
2022/12/12 09:33:52;;;;;;;10.70;9.25;;;6.80;99.90;;;;;;5072318;28;20646;-76
2022/12/12 09:36:18;;;;;;;10.48;8.48;;;8.10;99.90;;;;;;5072493;28;20189;-76
2022/12/12 09:38:44;;;;;;;9.68;8.23;;;9.20;96.60;;;;;;5076401;28;22290;-77
2022/12/12 09:41:20;;;;;;;9.85;8.10;;;10.20;91.60;;;;;;5076684;28;20183;-77
2022/12/12 09:44:04;;;;;;;5.47;4.30;;;10.70;90.20;;;;;;5074312;28;20183;-75
2022/12/12 09:46:38;;;;;;;12.02;8.25;;;11.20;84.80;;;;;;5064164;28;20666;-77
2022/12/12 09:49:11;;;;;;;10.70;8.18;;;11.20;78.40;;;;;;5075036;28;20218;-75
2022/12/12 09:51:37;;;;;;;10.85;7.82;;;11.30;79.70;;;;;;5070196;28;20630;-76
2022/12/12 09:54:03;;;;;;;10.40;8.95;;;11.10;74.80;;;;;;5076171;28;20185;-75
2022/12/12 09:57:24;;;;;;;9.15;7.63;;;10.40;80.10;;;;;;5072847;28;20179;-74
2022/12/12 10:00:02;;;;;;;9.60;7.82;;;10.80;79.00;;;;;;5018445;28;20204;-75
2022/12/12 10:02:31;;;;;;;10.60;8.75;;;10.60;73.60;;;;;;5062527;28;20194;-76
2022/12/12 10:05:05;;;;;;;10.60;8.10;;;9.80;75.20;;;;;;5070423;28;20249;-77
2022/12/12 10:07:56;;;;;;;10.20;8.43;;;9.90;79.20;;;;;;5071136;28;20189;-77
2022/12/12 10:10:27;;;;;;;8.93;7.50;;;10.90;75.90;;;;;;5077960;28;20179;-76
2022/12/12 10:12:55;;;;;;;9.88;8.45;;;11.60;73.00;;;;;;5074605;28;20225;-76
2022/12/12 10:15:39;;;;;;;9.68;8.65;;;11.30;71.70;;;;;;5082719;28;20171;-76
2022/12/12 10:18:38;;;;;;;10.30;8.05;;;9.90;71.80;;;;;;5084489;28;20194;-76
2022/12/12 10:21:13;;;;;;;11.55;7.75;;;8.30;76.60;;;;;;5055776;28;20642;-76
2022/12/12 10:23:45;;;;;;;9.73;7.97;;;8.60;77.30;;;;;;5083110;28;20528;-75
2022/12/12 10:26:15;;;;;;;9.13;7.68;;;9.80;75.30;;;;;;5071754;28;20179;-75
2022/12/12 10:28:40;;;;;;;11.82;9.57;;;10.90;71.30;;;;;;5080009;28;20300;-75
2022/12/12 10:31:15;;;;;;;11.70;8.35;;;12.40;70.10;;;;;;5072152;28;20255;-75
2022/12/12 10:33:49;;;;;;;8.50;6.95;;;13.60;62.70;;;;;;5072330;28;20653;-75
2022/12/12 10:36:17;;;;;;;9.13;8.23;;;13.10;60.60;;;;;;5078950;28;20190;-78
2022/12/12 10:39:02;;;;;;;8.75;7.40;;;13.50;60.50;;;;;;5067948;28;20230;-78
2022/12/12 10:41:47;;;;;;;7.72;6.93;;;13.90;57.90;;;;;;5064310;28;20186;-77
2022/12/12 10:44:22;;;;;;;7.75;6.95;;;14.00;58.00;;;;;;5075397;28;20277;-75
2022/12/12 10:46:53;;;;;;;7.20;6.53;;;13.20;56.60;;;;;;5074513;28;20186;-76
2022/12/12 10:49:21;;;;;;;6.93;5.90;;;13.60;56.70;;;;;;5076797;28;20246;-77
2022/12/12 10:51:48;;;;;;;6.78;6.18;;;14.70;57.00;;;;;;5073378;28;20581;-77
2022/12/12 10:54:17;;;;;;;7.35;6.20;;;14.70;53.50;;;;;;5070643;28;20262;-76
2022/12/12 10:57:07;;;;;;;5.63;4.70;;;14.70;52.70;;;;;;5072047;28;20254;-79
2022/12/12 11:00:15;;;;;;;5.45;4.95;;;14.50;51.20;;;;;;5077259;28;20225;-77
2022/12/12 11:02:42;;;;;;;6.05;5.45;;;14.60;50.60;;;;;;5053367;28;20221;-76
2022/12/12 11:05:13;;;;;;;5.55;4.95;;;14.40;50.30;;;;;;5068197;28;20244;-76
2022/12/12 11:07:43;;;;;;;5.25;4.20;;;13.60;52.70;;;;;;5069977;28;20195;-76
2022/12/12 11:10:32;;;;;;;6.28;5.30;;;12.30;51.70;;;;;;5069278;28;20203;-76
2022/12/12 11:13:01;;;;;;;5.50;4.63;;;12.60;55.00;;;;;;5073187;28;20270;-76
2022/12/12 11:15:31;;;;;;;7.13;5.50;;;11.50;54.00;;;;;;5067670;28;20168;-76
2022/12/12 11:17:57;;;;;;;6.35;5.35;;;9.70;55.90;;;;;;5071248;28;20274;-74
2022/12/12 11:20:24;;;;;;;6.22;5.63;;;8.20;63.00;;;;;;5075439;28;20313;-74
2022/12/12 11:22:53;;;;;;;7.93;6.68;;;6.90;64.70;;;;;;5064801;28;20228;-74
2022/12/12 11:25:24;;;;;;;6.65;5.95;;;6.10;67.90;;;;;;5065003;28;20194;-77
2022/12/12 11:27:51;;;;;;;6.03;5.25;;;7.20;68.00;;;;;;5063724;28;20196;-74
2022/12/12 11:30:38;;;;;;;6.50;5.60;;;8.90;63.60;;;;;;5077239;28;20280;-74
2022/12/12 11:33:07;;;;;;;6.28;5.55;;;11.20;57.90;;;;;;5065805;28;20306;-75
2022/12/12 11:35:34;;;;;;;4.57;4.18;;;12.90;55.50;;;;;;5062691;28;20184;-76
2022/12/12 11:38:17;;;;;;;5.65;5.05;;;13.10;51.00;;;;;;5072691;28;20198;-76
2022/12/12 11:40:44;;;;;;;6.68;4.82;;;13.80;51.40;;;;;;5071926;28;20185;-75
2022/12/12 11:43:26;;;;;;;4.88;4.35;;;14.90;51.70;;;;;;5065208;28;20172;-77
2022/12/12 11:46:00;;;;;;;4.85;4.45;;;16.50;48.00;;;;;;5065560;28;20179;-76
2022/12/12 11:48:52;;;;;;;5.00;4.28;;;17.60;46.60;;;;;;5071518;28;20591;-76
2022/12/12 11:51:44;;;;;;;4.35;4.00;;;17.70;44.70;;;;;;5076785;28;20183;-79
2022/12/12 11:54:28;;;;;;;4.32;3.97;;;18.40;43.60;;;;;;5080291;28;20186;-80
2022/12/12 11:57:04;;;;;;;7.00;5.30;;;19.20;42.00;;;;;;5074066;28;20206;-76
2022/12/12 11:59:55;;;;;;;5.75;5.20;;;19.70;41.90;;;;;;5065897;28;20204;-77
2022/12/12 12:03:01;;;;;;;4.50;4.07;;;19.90;40.90;;;;;;5066009;28;20175;-76
2022/12/12 12:05:45;;;;;;;5.00;4.60;;;20.20;39.10;;;;;;5074014;28;20175;-80
2022/12/12 12:08:30;;;;;;;4.00;3.70;;;18.80;39.30;;;;;;5070343;28;20194;-77
2022/12/12 12:11:13;;;;;;;4.40;3.97;;;16.80;40.20;;;;;;5072344;28;20598;-77
2022/12/12 12:13:57;;;;;;;4.75;4.35;;;14.30;42.20;;;;;;5065641;28;20168;-77
2022/12/12 12:16:57;;;;;;;4.90;3.53;;;12.30;45.70;;;;;;5065240;28;20174;-77
2022/12/12 12:19:48;;;;;;;4.70;4.30;;;11.10;45.70;;;;;;5059280;28;20195;-75
2022/12/12 12:22:54;;;;;;;5.75;5.15;;;9.40;49.20;;;;;;5062564;28;20595;-75
2022/12/12 12:25:39;;;;;;;4.70;4.30;;;7.90;52.70;;;;;;5007998;28;20185;-75
2022/12/12 12:28:31;;;;;;;5.20;4.70;;;6.70;55.20;;;;;;5064790;28;20234;-75
2022/12/12 12:31:21;;;;;;;4.95;4.50;;;7.10;57.20;;;;;;5067848;28;20728;-76
2022/12/12 12:34:00;;;;;;;5.10;4.63;;;7.80;55.10;;;;;;5068172;28;20180;-75
2022/12/12 12:36:40;;;;;;;6.15;5.00;;;7.60;54.50;;;;;;5074294;28;20170;-75
2022/12/12 12:39:38;;;;;;;5.68;5.18;;;7.00;54.70;;;;;;5079923;28;20221;-75
2022/12/12 12:42:33;;;;;;;5.53;4.90;;;6.40;56.80;;;;;;5045279;28;20672;-76
2022/12/12 12:45:28;;;;;;;4.97;4.53;;;5.80;57.60;;;;;;5063555;28;20233;-74
2022/12/12 12:48:03;;;;;;;7.88;5.07;;;5.20;59.30;;;;;;5068773;28;20211;-75
2022/12/12 12:50:33;;;;;;;5.93;4.90;;;4.60;62.30;;;;;;5071988;28;20170;-75
2022/12/12 12:53:16;;;;;;;5.70;4.20;;;4.20;62.60;;;;;;5072812;28;20650;-73
2022/12/12 12:55:49;;;;;;;5.28;4.50;;;4.00;63.90;;;;;;5072251;28;20670;-75
2022/12/12 12:58:24;;;;;;;6.07;4.97;;;4.00;63.60;;;;;;5066823;28;20203;-75
2022/12/12 13:01:00;;;;;;;5.22;4.72;;;4.60;63.30;;;;;;5075387;28;20237;-75
2022/12/12 13:03:34;;;;;;;7.10;5.20;;;5.40;63.60;;;;;;5065742;28;20578;-76
2022/12/12 13:06:07;;;;;;;4.63;4.20;;;6.50;62.30;;;;;;5060953;28;20176;-75
2022/12/12 13:08:41;;;;;;;6.03;5.15;;;7.30;60.20;;;;;;5067632;28;20198;-76
2022/12/12 13:11:16;;;;;;;5.57;4.97;;;7.90;57.80;;;;;;5072026;28;20185;-74
2022/12/12 13:13:45;;;;;;;5.07;4.50;;;8.40;57.50;;;;;;5069178;28;20175;-76